Terminal Aerodrome Forecast
Issued by NWS Wilmington, NC

Current Version | Previous Version | Graphics & Text | Print | Product List | Glossary Off
Versions: 1 2 3 4 5 6 7 8 9 10 11 12 13 14 15 16 17 18 19 20 21 22 23 24 25 26 27 28 29 30

000
FTUS42 KILM 052340
TAFILM
TAF
KILM 052340Z 0600/0624 30010KT P6SM VCSH BKN045 OVC100
     FM060200 29005KT P6SM BKN050 OVC120
     FM060900 28006KT P6SM SCT007 BKN012
     FM061300 29012KT P6SM VCSH BKN045 OVC100
     FM061700 28010KT P6SM VCTS SCT035CB BKN045 OVC080=

USA.gov is the U.S. government's official web portal to all federal, state and local government web resources and services.